Time;durP1;ratioP1;P1;durP2;ratioP2;P2;SDS_P1;SDS_P2;PMS_P1;PMS_P2;Temp;Humidity;BMP_temperature;BMP_pressure;BME280_temperature;BME280_humidity;BME280_pressure;Samples;Min_cycle;Max_cycle;Signal;HPM_P1;HPM_P2
2023/09/26 00:00:22;;;;;;;5.25;2.83;;;;;;;;;;5093899;28;20205;-60
2023/09/26 00:03:12;;;;;;;3.45;2.42;;;;;;;;;;5093639;28;20198;-60
2023/09/26 00:05:39;;;;;;;5.85;2.53;;;;;;;;;;5093251;28;20195;-60
2023/09/26 00:08:07;;;;;;;2.78;2.05;;;;;;;;;;5093479;28;20199;-60
2023/09/26 00:10:35;;;;;;;4.20;2.00;;;;;;;;;;5093113;28;20222;-60
2023/09/26 00:13:02;;;;;;;3.35;2.08;;;;;;;;;;5093174;28;20608;-60
2023/09/26 00:15:30;;;;;;;4.57;2.03;;;;;;;;;;5095388;28;20199;-59
2023/09/26 00:17:57;;;;;;;6.55;1.80;;;;;;;;;;5097306;28;20238;-60
2023/09/26 00:20:27;;;;;;;3.10;2.17;;;;;;;;;;5097528;28;20202;-60
2023/09/26 00:22:56;;;;;;;3.45;2.08;;;;;;;;;;5097387;28;20209;-60
2023/09/26 00:25:24;;;;;;;2.70;1.70;;;;;;;;;;5097202;28;20206;-60
2023/09/26 00:27:52;;;;;;;2.22;1.90;;;;;;;;;;5096916;28;20210;-60
2023/09/26 00:30:21;;;;;;;3.25;2.00;;;;;;;;;;5096913;28;20227;-60
2023/09/26 00:32:48;;;;;;;2.17;1.85;;;;;;;;;;5096901;28;20218;-60
2023/09/26 00:35:15;;;;;;;5.30;2.00;;;;;;;;;;5097081;28;20289;-60
2023/09/26 00:37:47;;;;;;;3.78;1.85;;;;;;;;;;5096934;28;20198;-60
2023/09/26 00:40:16;;;;;;;2.70;1.75;;;;;;;;;;5096817;28;20663;-60
2023/09/26 00:42:43;;;;;;;3.50;2.30;;;;;;;;;;5095713;28;20203;-60
2023/09/26 00:45:12;;;;;;;3.35;2.00;;;;;;;;;;5096684;28;20240;-60
2023/09/26 00:47:41;;;;;;;2.88;2.00;;;;;;;;;;5096566;28;20248;-60
2023/09/26 00:50:13;;;;;;;3.55;2.03;;;;;;;;;;5096688;28;20248;-60
2023/09/26 00:52:46;;;;;;;3.33;1.92;;;;;;;;;;5094930;28;20209;-60
2023/09/26 00:55:17;;;;;;;3.75;2.45;;;;;;;;;;5096716;28;20221;-59
2023/09/26 00:57:46;;;;;;;4.55;2.10;;;;;;;;;;5095190;28;20671;-60
2023/09/26 01:00:15;;;;;;;2.78;2.08;;;;;;;;;;5095355;28;20602;-60
2023/09/26 01:02:43;;;;;;;3.53;2.25;;;;;;;;;;5096507;28;20214;-60
2023/09/26 01:05:10;;;;;;;7.68;2.25;;;;;;;;;;5096347;28;20619;-60
2023/09/26 01:07:38;;;;;;;3.60;2.40;;;;;;;;;;5095209;28;20252;-60
2023/09/26 01:10:08;;;;;;;6.10;2.30;;;;;;;;;;5094993;28;20226;-60
2023/09/26 01:12:38;;;;;;;3.05;2.17;;;;;;;;;;5096553;28;20202;-60
2023/09/26 01:15:09;;;;;;;3.22;2.10;;;;;;;;;;5095096;28;20198;-60
2023/09/26 01:17:36;;;;;;;5.55;2.10;;;;;;;;;;5094727;28;20248;-60
2023/09/26 01:20:24;;;;;;;5.82;2.50;;;;;;;;;;5094995;28;20202;-60
2023/09/26 01:22:52;;;;;;;4.70;2.40;;;;;;;;;;5095957;28;20199;-60
2023/09/26 01:25:19;;;;;;;3.38;2.08;;;;;;;;;;5094666;28;20202;-60
2023/09/26 01:27:47;;;;;;;5.00;2.85;;;;;;;;;;5093538;28;20710;-58
2023/09/26 01:30:15;;;;;;;5.45;2.40;;;;;;;;;;5094944;28;20230;-60
2023/09/26 01:32:42;;;;;;;3.88;2.50;;;;;;;;;;5095935;28;20199;-59
2023/09/26 01:35:10;;;;;;;6.50;2.83;;;;;;;;;;5095795;28;20256;-60
2023/09/26 01:37:37;;;;;;;4.97;2.47;;;;;;;;;;5095935;28;20327;-60
2023/09/26 01:40:15;;;;;;;6.78;2.47;;;;;;;;;;5094436;28;20327;-60
2023/09/26 01:42:43;;;;;;;8.75;2.63;;;;;;;;;;5095746;28;20670;-60
2023/09/26 01:45:10;;;;;;;4.97;2.35;;;;;;;;;;5095511;28;20202;-60
2023/09/26 01:47:46;;;;;;;5.00;2.25;;;;;;;;;;5094272;28;20206;-60
2023/09/26 01:50:15;;;;;;;4.05;2.40;;;;;;;;;;5094474;28;20247;-61
2023/09/26 01:52:43;;;;;;;4.43;2.53;;;;;;;;;;5094481;28;20207;-60
2023/09/26 01:55:13;;;;;;;4.78;2.65;;;;;;;;;;5094037;28;20199;-60
2023/09/26 01:57:41;;;;;;;4.50;2.70;;;;;;;;;;5095372;28;20655;-60
2023/09/26 02:00:11;;;;;;;3.90;2.45;;;;;;;;;;5094022;28;20210;-60
2023/09/26 02:02:41;;;;;;;8.25;2.63;;;;;;;;;;5095251;28;20207;-60
2023/09/26 02:05:13;;;;;;;6.43;2.40;;;;;;;;;;5094146;28;20283;-60
2023/09/26 02:07:41;;;;;;;12.35;2.95;;;;;;;;;;5095288;28;20209;-60
2023/09/26 02:10:08;;;;;;;6.25;2.72;;;;;;;;;;5093756;28;20773;-60
2023/09/26 02:12:38;;;;;;;4.75;2.45;;;;;;;;;;5093835;28;20248;-60
2023/09/26 02:15:08;;;;;;;3.90;2.40;;;;;;;;;;5093725;28;20647;-60
2023/09/26 02:17:36;;;;;;;2.53;1.98;;;;;;;;;;5093935;28;20260;-60
2023/09/26 02:20:08;;;;;;;3.47;2.25;;;;;;;;;;5094908;28;20279;-60
2023/09/26 02:22:35;;;;;;;3.25;1.98;;;;;;;;;;5093880;28;20210;-60
2023/09/26 02:25:03;;;;;;;6.30;2.00;;;;;;;;;;5095038;28;20647;-60
2023/09/26 02:27:30;;;;;;;5.35;2.17;;;;;;;;;;5093746;28;20203;-60
2023/09/26 02:29:58;;;;;;;3.55;2.33;;;;;;;;;;5094841;28;20223;-60
2023/09/26 02:32:25;;;;;;;2.85;2.15;;;;;;;;;;5094778;28;20666;-60
2023/09/26 02:34:52;;;;;;;1.80;1.63;;;;;;;;;;5094537;28;20294;-60
2023/09/26 02:37:20;;;;;;;3.33;2.13;;;;;;;;;;5094231;28;20210;-60
2023/09/26 02:39:47;;;;;;;4.65;2.30;;;;;;;;;;5093225;28;20210;-60
2023/09/26 02:42:15;;;;;;;5.25;2.45;;;;;;;;;;5094569;28;20199;-60
2023/09/26 02:44:42;;;;;;;3.70;2.03;;;;;;;;;;5093155;28;20205;-60
2023/09/26 02:47:09;;;;;;;7.38;2.60;;;;;;;;;;5093725;28;20207;-60
2023/09/26 02:49:36;;;;;;;3.78;2.55;;;;;;;;;;5092060;28;20203;-59
2023/09/26 02:52:04;;;;;;;6.22;2.38;;;;;;;;;;5091997;28;20199;-59
2023/09/26 02:54:31;;;;;;;6.50;2.33;;;;;;;;;;5092037;28;20225;-59
2023/09/26 02:56:58;;;;;;;4.80;2.40;;;;;;;;;;5090980;28;20210;-59
2023/09/26 02:59:25;;;;;;;2.65;2.28;;;;;;;;;;5091091;28;20210;-59
2023/09/26 03:01:53;;;;;;;5.30;2.45;;;;;;;;;;5092608;28;20614;-60
2023/09/26 03:04:20;;;;;;;5.10;2.35;;;;;;;;;;5092062;28;20567;-59
2023/09/26 03:06:47;;;;;;;3.85;2.13;;;;;;;;;;5090794;28;20202;-59
2023/09/26 03:09:17;;;;;;;2.75;2.22;;;;;;;;;;5091436;28;20612;-60
2023/09/26 03:11:44;;;;;;;2.90;2.10;;;;;;;;;;5093089;28;20234;-60
2023/09/26 03:14:12;;;;;;;5.97;2.58;;;;;;;;;;5092944;28;20289;-60
2023/09/26 03:16:39;;;;;;;4.93;2.55;;;;;;;;;;5093881;28;20247;-60
2023/09/26 03:19:07;;;;;;;4.55;2.40;;;;;;;;;;5093509;28;20234;-60
2023/09/26 03:21:34;;;;;;;6.03;2.33;;;;;;;;;;5092566;28;20222;-59
2023/09/26 03:24:01;;;;;;;4.50;2.58;;;;;;;;;;5093639;28;20606;-59
2023/09/26 03:26:29;;;;;;;6.93;2.60;;;;;;;;;;5092486;28;20207;-60
2023/09/26 03:28:56;;;;;;;5.15;2.35;;;;;;;;;;5093667;28;20206;-60
2023/09/26 03:31:23;;;;;;;3.45;2.40;;;;;;;;;;5099771;28;20252;-59
2023/09/26 03:33:50;;;;;;;4.07;2.50;;;;;;;;;;5108519;28;20243;-60
2023/09/26 03:36:18;;;;;;;4.70;2.47;;;;;;;;;;5104526;28;20206;-60
2023/09/26 03:38:45;;;;;;;4.40;2.63;;;;;;;;;;5106711;28;20217;-59
2023/09/26 03:41:12;;;;;;;3.65;2.85;;;;;;;;;;5106795;28;20199;-60
2023/09/26 03:43:39;;;;;;;4.53;2.83;;;;;;;;;;5107758;28;20221;-60
2023/09/26 03:46:07;;;;;;;7.05;2.72;;;;;;;;;;5107727;28;20205;-60
2023/09/26 03:48:36;;;;;;;5.60;2.95;;;;;;;;;;5104388;28;20663;-60
2023/09/26 03:51:13;;;;;;;3.88;2.58;;;;;;;;;;5108007;28;20234;-60
2023/09/26 03:53:42;;;;;;;7.07;2.83;;;;;;;;;;5105851;28;20205;-60
2023/09/26 03:56:09;;;;;;;4.97;2.65;;;;;;;;;;5115539;28;20201;-60
2023/09/26 03:58:37;;;;;;;7.05;2.30;;;;;;;;;;5108911;28;20578;-59
2023/09/26 04:01:18;;;;;;;7.53;2.78;;;;;;;;;;5110543;27;20221;-59
2023/09/26 04:03:46;;;;;;;7.05;2.75;;;;;;;;;;5106287;28;20218;-60
2023/09/26 04:06:14;;;;;;;4.45;2.85;;;;;;;;;;5102092;28;20219;-60
2023/09/26 04:08:41;;;;;;;4.88;2.55;;;;;;;;;;5096242;28;20226;-60
2023/09/26 04:11:15;;;;;;;4.47;2.92;;;;;;;;;;5098408;28;20237;-59
2023/09/26 04:13:43;;;;;;;3.38;2.65;;;;;;;;;;5105146;28;20233;-59
2023/09/26 04:16:11;;;;;;;4.97;2.80;;;;;;;;;;5096361;28;20276;-59
2023/09/26 04:18:38;;;;;;;4.97;3.17;;;;;;;;;;5105361;28;20755;-58
2023/09/26 04:21:06;;;;;;;3.13;2.30;;;;;;;;;;5117083;28;20226;-60
2023/09/26 04:23:38;;;;;;;2.67;2.30;;;;;;;;;;5116082;27;20226;-59
2023/09/26 04:26:14;;;;;;;4.35;2.30;;;;;;;;;;5116534;28;20221;-59
2023/09/26 04:28:42;;;;;;;3.38;2.42;;;;;;;;;;5115915;27;20765;-60
2023/09/26 04:31:17;;;;;;;4.72;2.53;;;;;;;;;;5116294;28;20790;-61
2023/09/26 04:33:46;;;;;;;4.10;2.90;;;;;;;;;;5116149;27;20229;-61
2023/09/26 04:36:14;;;;;;;7.40;2.33;;;;;;;;;;5116349;28;20703;-59
2023/09/26 04:38:41;;;;;;;3.80;2.63;;;;;;;;;;5115997;27;20233;-60
2023/09/26 04:41:09;;;;;;;3.78;2.88;;;;;;;;;;5116322;28;20702;-60
2023/09/26 04:43:36;;;;;;;4.50;3.00;;;;;;;;;;5105594;28;20255;-60
2023/09/26 04:46:12;;;;;;;4.50;2.85;;;;;;;;;;5095686;28;20226;-61
2023/09/26 04:48:44;;;;;;;4.30;2.65;;;;;;;;;;5095536;28;20226;-61
2023/09/26 04:51:13;;;;;;;6.22;3.28;;;;;;;;;;5094684;28;20589;-60
2023/09/26 04:53:41;;;;;;;4.00;2.92;;;;;;;;;;5093704;28;20230;-60
2023/09/26 04:56:08;;;;;;;7.25;3.10;;;;;;;;;;5094249;28;20222;-60
2023/09/26 04:58:36;;;;;;;5.18;2.95;;;;;;;;;;5093783;28;20313;-62
2023/09/26 05:01:14;;;;;;;7.78;3.63;;;;;;;;;;5094742;28;20565;-61
2023/09/26 05:03:42;;;;;;;4.00;3.03;;;;;;;;;;5095149;28;20291;-62
2023/09/26 05:06:11;;;;;;;4.50;2.72;;;;;;;;;;5095507;28;20233;-61
2023/09/26 05:08:39;;;;;;;5.28;3.25;;;;;;;;;;5095366;28;20253;-61
2023/09/26 05:11:07;;;;;;;7.28;3.65;;;;;;;;;;5095288;28;20246;-61
2023/09/26 05:13:33;;;;;;;5.93;3.40;;;;;;;;;;5103187;28;20273;-61
2023/09/26 05:16:01;;;;;;;4.05;3.10;;;;;;;;;;5116023;27;20222;-61
2023/09/26 05:18:28;;;;;;;5.82;3.13;;;;;;;;;;5115674;28;20234;-61
2023/09/26 05:20:56;;;;;;;7.57;3.80;;;;;;;;;;5116067;28;20569;-61
2023/09/26 05:23:23;;;;;;;5.32;3.38;;;;;;;;;;5116517;28;20202;-62
2023/09/26 05:25:50;;;;;;;5.40;3.17;;;;;;;;;;5116489;28;20202;-60
2023/09/26 05:28:17;;;;;;;10.57;3.78;;;;;;;;;;5115107;27;20202;-61
2023/09/26 05:30:45;;;;;;;9.60;3.65;;;;;;;;;;5115976;28;20229;-61
2023/09/26 05:33:12;;;;;;;4.00;3.05;;;;;;;;;;5116361;28;20198;-61
2023/09/26 05:35:40;;;;;;;12.98;4.20;;;;;;;;;;5116064;28;20202;-61
2023/09/26 05:38:07;;;;;;;4.88;3.50;;;;;;;;;;5116142;28;20311;-60
2023/09/26 05:40:35;;;;;;;7.10;4.10;;;;;;;;;;5115953;28;20209;-61
2023/09/26 05:43:02;;;;;;;5.53;3.78;;;;;;;;;;5115904;27;20663;-61
2023/09/26 05:45:30;;;;;;;5.95;3.97;;;;;;;;;;5116111;28;20210;-61
2023/09/26 05:47:57;;;;;;;6.70;4.10;;;;;;;;;;5116084;28;20202;-60
2023/09/26 05:50:24;;;;;;;5.60;4.10;;;;;;;;;;5115759;27;20202;-61
2023/09/26 05:52:51;;;;;;;5.88;4.57;;;;;;;;;;5115744;28;20574;-61
2023/09/26 05:55:18;;;;;;;5.70;3.70;;;;;;;;;;5115908;28;20213;-61
2023/09/26 05:57:46;;;;;;;8.68;4.13;;;;;;;;;;5115590;28;20285;-61
2023/09/26 06:00:15;;;;;;;7.18;4.43;;;;;;;;;;5115540;28;20209;-61
2023/09/26 06:02:43;;;;;;;6.35;4.38;;;;;;;;;;5115483;28;20222;-61
2023/09/26 06:05:14;;;;;;;7.15;4.82;;;;;;;;;;5113817;28;20239;-61
2023/09/26 06:07:41;;;;;;;6.80;4.85;;;;;;;;;;5115749;28;20205;-61
2023/09/26 06:10:12;;;;;;;7.55;5.18;;;;;;;;;;5107292;28;20245;-61
2023/09/26 06:12:40;;;;;;;6.40;4.57;;;;;;;;;;5094478;28;20194;-60
2023/09/26 06:15:12;;;;;;;10.35;5.10;;;;;;;;;;5095144;28;20203;-61
2023/09/26 06:17:40;;;;;;;7.40;5.40;;;;;;;;;;5094784;28;20205;-60
2023/09/26 06:20:08;;;;;;;13.52;5.30;;;;;;;;;;5095022;28;20230;-60
2023/09/26 06:22:36;;;;;;;9.30;6.13;;;;;;;;;;5094772;28;20202;-61
2023/09/26 06:25:04;;;;;;;9.25;6.18;;;;;;;;;;5094752;28;20198;-61
2023/09/26 06:27:38;;;;;;;11.02;5.53;;;;;;;;;;5094930;28;20214;-61
2023/09/26 06:30:05;;;;;;;9.32;6.78;;;;;;;;;;5094818;28;20206;-61
2023/09/26 06:32:34;;;;;;;10.68;6.10;;;;;;;;;;5094661;28;20226;-61
2023/09/26 06:35:02;;;;;;;8.15;5.78;;;;;;;;;;5094522;28;20683;-60
2023/09/26 06:37:29;;;;;;;10.75;6.53;;;;;;;;;;5094433;28;20202;-61
2023/09/26 06:40:00;;;;;;;12.80;6.75;;;;;;;;;;5094702;28;20213;-61
2023/09/26 06:42:27;;;;;;;12.82;6.75;;;;;;;;;;5094669;28;20221;-60
2023/09/26 06:44:54;;;;;;;12.73;6.85;;;;;;;;;;5094589;28;20198;-61
2023/09/26 06:47:21;;;;;;;10.85;6.65;;;;;;;;;;5094305;28;20538;-61
2023/09/26 06:49:49;;;;;;;10.57;7.30;;;;;;;;;;5094293;28;20206;-61
2023/09/26 06:52:16;;;;;;;14.35;6.97;;;;;;;;;;5094501;28;20234;-61
2023/09/26 06:54:44;;;;;;;16.17;6.43;;;;;;;;;;5094539;28;20207;-61
2023/09/26 06:57:15;;;;;;;10.32;6.95;;;;;;;;;;5094168;28;20206;-61
2023/09/26 06:59:48;;;;;;;16.52;7.35;;;;;;;;;;5094311;28;20202;-61
2023/09/26 07:02:15;;;;;;;13.75;7.50;;;;;;;;;;5094156;28;20202;-61
2023/09/26 07:04:42;;;;;;;11.45;7.22;;;;;;;;;;5094027;28;20589;-61
2023/09/26 07:07:09;;;;;;;12.73;7.88;;;;;;;;;;5094198;28;20203;-61
2023/09/26 07:09:38;;;;;;;10.07;7.13;;;;;;;;;;5094358;28;20207;-61
2023/09/26 07:12:06;;;;;;;10.68;6.95;;;;;;;;;;5093980;28;20305;-61
2023/09/26 07:14:35;;;;;;;11.88;6.38;;;;;;;;;;5093974;28;20201;-61
2023/09/26 07:17:02;;;;;;;13.85;7.97;;;;;;;;;;5093792;28;20206;-60
2023/09/26 07:19:31;;;;;;;14.25;7.47;;;;;;;;;;5093996;28;20710;-60
2023/09/26 07:21:59;;;;;;;14.75;8.55;;;;;;;;;;5093937;28;20275;-61
2023/09/26 07:24:26;;;;;;;11.85;8.30;;;;;;;;;;5093346;28;20203;-61
2023/09/26 07:27:09;;;;;;;15.10;9.38;;;;;;;;;;5093682;28;20203;-61
2023/09/26 07:29:36;;;;;;;13.27;9.23;;;;;;;;;;5093650;28;20195;-61
2023/09/26 07:32:04;;;;;;;12.80;8.90;;;;;;;;;;5093740;28;20250;-60
2023/09/26 07:34:31;;;;;;;15.27;8.98;;;;;;;;;;5093641;28;20572;-61
2023/09/26 07:36:58;;;;;;;16.48;8.65;;;;;;;;;;5093783;28;20198;-60
2023/09/26 07:39:25;;;;;;;13.45;8.75;;;;;;;;;;5093696;28;20206;-61
2023/09/26 07:41:52;;;;;;;13.68;9.02;;;;;;;;;;5093474;28;20249;-61
2023/09/26 07:44:20;;;;;;;13.32;9.27;;;;;;;;;;5093717;28;20194;-61
2023/09/26 07:46:47;;;;;;;13.20;8.95;;;;;;;;;;5093399;28;20203;-60
2023/09/26 07:49:15;;;;;;;14.48;9.35;;;;;;;;;;5093508;28;20662;-61
2023/09/26 07:51:42;;;;;;;14.98;9.45;;;;;;;;;;5093495;28;20221;-60
2023/09/26 07:54:10;;;;;;;14.38;9.70;;;;;;;;;;5093460;28;20666;-61
2023/09/26 07:56:37;;;;;;;14.80;9.60;;;;;;;;;;5093378;28;20222;-59
2023/09/26 07:59:04;;;;;;;16.65;9.38;;;;;;;;;;5093597;28;20198;-61
2023/09/26 08:01:31;;;;;;;12.75;9.18;;;;;;;;;;5092191;28;20706;-61
2023/09/26 08:03:59;;;;;;;16.63;9.60;;;;;;;;;;5093488;28;20203;-61
2023/09/26 08:06:26;;;;;;;17.73;9.45;;;;;;;;;;5093501;28;20203;-60
2023/09/26 08:08:53;;;;;;;12.90;9.45;;;;;;;;;;5093235;28;20206;-60
2023/09/26 08:11:21;;;;;;;13.73;8.90;;;;;;;;;;5093485;28;20300;-61
2023/09/26 08:13:48;;;;;;;13.52;9.48;;;;;;;;;;5093517;28;20202;-60
2023/09/26 08:16:15;;;;;;;15.13;9.80;;;;;;;;;;5093209;28;20663;-60
2023/09/26 08:18:43;;;;;;;14.90;9.13;;;;;;;;;;5093248;28;20271;-61
2023/09/26 08:21:10;;;;;;;15.88;9.63;;;;;;;;;;5093305;28;20241;-61
2023/09/26 08:23:37;;;;;;;15.75;9.82;;;;;;;;;;5093063;28;20203;-61
2023/09/26 08:26:07;;;;;;;20.13;9.45;;;;;;;;;;5093420;28;20233;-61
2023/09/26 08:28:35;;;;;;;14.70;10.07;;;;;;;;;;5093332;28;20217;-61
2023/09/26 08:31:07;;;;;;;13.90;9.60;;;;;;;;;;5093115;28;20642;-60
2023/09/26 08:33:36;;;;;;;15.10;9.65;;;;;;;;;;5093074;28;20667;-60
2023/09/26 08:36:13;;;;;;;12.90;9.43;;;;;;;;;;5094273;28;20237;-60
2023/09/26 08:38:41;;;;;;;14.65;10.10;;;;;;;;;;5097189;28;20221;-59
2023/09/26 08:41:10;;;;;;;16.08;10.07;;;;;;;;;;5096855;28;20613;-60
2023/09/26 08:43:37;;;;;;;14.50;10.02;;;;;;;;;;5096886;28;20203;-60
2023/09/26 08:46:05;;;;;;;20.70;10.48;;;;;;;;;;5096692;28;20206;-60
2023/09/26 08:48:34;;;;;;;14.45;10.48;;;;;;;;;;5096577;28;20666;-58
2023/09/26 08:51:04;;;;;;;17.30;10.02;;;;;;;;;;5096766;28;20225;-60
2023/09/26 08:53:32;;;;;;;16.30;10.75;;;;;;;;;;5096794;28;20213;-60
2023/09/26 08:55:59;;;;;;;14.75;10.70;;;;;;;;;;5096463;28;20651;-60
2023/09/26 08:58:27;;;;;;;19.40;10.82;;;;;;;;;;5096453;28;20199;-60
2023/09/26 09:00:55;;;;;;;17.38;11.40;;;;;;;;;;5096279;28;20210;-60
2023/09/26 09:03:22;;;;;;;18.88;11.20;;;;;;;;;;5096660;28;20214;-60
2023/09/26 09:05:50;;;;;;;18.88;11.85;;;;;;;;;;5096569;28;20571;-60
2023/09/26 09:08:22;;;;;;;17.80;10.70;;;;;;;;;;5096414;28;20210;-60
2023/09/26 09:10:55;;;;;;;16.73;10.50;;;;;;;;;;5096502;28;20203;-60
2023/09/26 09:13:33;;;;;;;19.02;10.85;;;;;;;;;;5096088;28;20703;-60
2023/09/26 09:16:21;;;;;;;16.00;10.23;;;;;;;;;;5094978;28;20674;-60
2023/09/26 09:18:57;;;;;;;18.95;10.00;;;;;;;;;;5096274;28;20255;-60
2023/09/26 09:21:25;;;;;;;16.92;10.23;;;;;;;;;;5096233;28;20207;-59
2023/09/26 09:23:54;;;;;;;16.23;9.98;;;;;;;;;;5095833;28;20202;-60
2023/09/26 09:26:22;;;;;;;15.23;10.55;;;;;;;;;;5096267;28;20201;-60
2023/09/26 09:28:55;;;;;;;14.60;10.20;;;;;;;;;;5095893;28;20233;-60
2023/09/26 09:31:22;;;;;;;18.58;10.43;;;;;;;;;;5095814;28;20198;-60
2023/09/26 09:33:55;;;;;;;15.77;9.68;;;;;;;;;;5096022;28;20264;-60
2023/09/26 09:36:23;;;;;;;17.25;10.10;;;;;;;;;;5095769;28;20203;-60
2023/09/26 09:38:50;;;;;;;15.43;9.88;;;;;;;;;;5096127;28;20214;-60
2023/09/26 09:41:18;;;;;;;13.48;9.32;;;;;;;;;;5096201;28;20195;-61
2023/09/26 09:43:46;;;;;;;18.13;8.65;;;;;;;;;;5095703;28;20206;-60
2023/09/26 09:46:15;;;;;;;12.93;9.02;;;;;;;;;;5095654;28;20284;-60
2023/09/26 09:48:44;;;;;;;13.73;8.82;;;;;;;;;;5094640;28;20213;-60
2023/09/26 09:51:13;;;;;;;11.60;7.90;;;;;;;;;;5095430;28;20199;-60
2023/09/26 09:53:42;;;;;;;15.05;8.77;;;;;;;;;;5095380;28;20246;-60
2023/09/26 09:56:18;;;;;;;12.90;9.02;;;;;;;;;;5094430;28;20202;-60
2023/09/26 09:58:49;;;;;;;10.40;8.20;;;;;;;;;;5095493;28;20561;-60
2023/09/26 10:01:19;;;;;;;14.55;9.27;;;;;;;;;;5095329;28;20202;-60
2023/09/26 10:03:50;;;;;;;17.58;8.85;;;;;;;;;;5094942;28;20546;-61
2023/09/26 10:06:20;;;;;;;12.85;9.05;;;;;;;;;;5095354;28;20210;-61
2023/09/26 10:08:48;;;;;;;10.98;8.07;;;;;;;;;;5094997;28;20240;-61
2023/09/26 10:11:17;;;;;;;16.65;8.20;;;;;;;;;;5094998;28;20248;-60
2023/09/26 10:13:45;;;;;;;15.02;8.20;;;;;;;;;;5093488;28;20588;-60
2023/09/26 10:16:17;;;;;;;11.80;7.75;;;;;;;;;;5094897;28;20203;-62
2023/09/26 10:18:47;;;;;;;11.02;8.57;;;;;;;;;;5094973;28;20698;-61
2023/09/26 10:21:20;;;;;;;12.18;8.00;;;;;;;;;;5095057;28;20194;-61
2023/09/26 10:24:05;;;;;;;16.58;8.63;;;;;;;;;;5094997;28;20209;-61
2023/09/26 10:26:33;;;;;;;12.43;7.85;;;;;;;;;;5094774;28;20214;-60
2023/09/26 10:29:11;;;;;;;18.15;8.18;;;;;;;;;;5094976;28;20256;-60
2023/09/26 10:31:41;;;;;;;13.73;8.10;;;;;;;;;;5094768;28;20289;-60
2023/09/26 10:34:08;;;;;;;19.73;7.95;;;;;;;;;;5094724;28;20256;-60
2023/09/26 10:36:37;;;;;;;19.52;7.57;;;;;;;;;;5093855;28;20667;-60
2023/09/26 10:39:09;;;;;;;21.02;7.05;;;;;;;;;;5094113;28;20198;-60
2023/09/26 10:41:37;;;;;;;16.55;7.38;;;;;;;;;;5094047;28;20209;-60
2023/09/26 10:44:24;;;;;;;11.88;7.97;;;;;;;;;;5093974;28;20541;-60
2023/09/26 10:46:53;;;;;;;12.88;7.57;;;;;;;;;;5094636;28;20203;-60
2023/09/26 10:49:21;;;;;;;10.73;7.25;;;;;;;;;;5094426;28;20659;-60
2023/09/26 10:51:48;;;;;;;15.40;7.82;;;;;;;;;;5094161;28;20667;-61
2023/09/26 10:54:16;;;;;;;12.13;7.50;;;;;;;;;;5094270;28;20690;-60
2023/09/26 10:56:49;;;;;;;12.82;7.18;;;;;;;;;;5094569;28;20284;-60
2023/09/26 10:59:17;;;;;;;10.25;7.10;;;;;;;;;;5094203;28;20206;-60
2023/09/26 11:01:47;;;;;;;10.70;7.70;;;;;;;;;;5094083;28;20229;-60
2023/09/26 11:04:15;;;;;;;12.15;7.80;;;;;;;;;;5094417;28;20197;-60
2023/09/26 11:06:42;;;;;;;9.50;7.28;;;;;;;;;;5094314;28;20199;-60
2023/09/26 11:09:11;;;;;;;14.80;7.15;;;;;;;;;;5094254;28;20206;-60
2023/09/26 11:11:39;;;;;;;13.68;6.93;;;;;;;;;;5093892;28;20203;-60
2023/09/26 11:14:06;;;;;;;10.68;6.50;;;;;;;;;;5092909;28;20208;-60
2023/09/26 11:16:33;;;;;;;17.10;6.10;;;;;;;;;;5092679;28;20267;-60
2023/09/26 11:19:01;;;;;;;20.73;6.15;;;;;;;;;;5093995;28;20234;-60
2023/09/26 11:21:28;;;;;;;11.82;6.43;;;;;;;;;;5094016;28;20198;-60
2023/09/26 11:23:57;;;;;;;17.95;6.57;;;;;;;;;;5094021;28;20263;-59
2023/09/26 11:26:24;;;;;;;10.88;5.72;;;;;;;;;;5093836;28;20608;-60
2023/09/26 11:28:52;;;;;;;16.83;6.10;;;;;;;;;;5093655;28;20210;-60
2023/09/26 11:31:19;;;;;;;9.98;5.88;;;;;;;;;;5094356;28;20207;-60
2023/09/26 11:33:46;;;;;;;12.20;5.68;;;;;;;;;;5093678;28;20229;-60
2023/09/26 11:36:14;;;;;;;11.38;5.68;;;;;;;;;;5093870;28;20229;-60
2023/09/26 11:38:48;;;;;;;11.38;5.60;;;;;;;;;;5090378;28;20206;-60
2023/09/26 11:41:15;;;;;;;11.95;5.43;;;;;;;;;;5092794;28;20219;-60
2023/09/26 11:43:47;;;;;;;20.08;5.82;;;;;;;;;;5092358;28;20684;-61
2023/09/26 11:46:14;;;;;;;15.88;6.00;;;;;;;;;;5092895;28;20226;-60
2023/09/26 11:48:42;;;;;;;8.82;5.80;;;;;;;;;;5092624;28;20215;-61
2023/09/26 11:51:10;;;;;;;12.30;5.72;;;;;;;;;;5092769;28;20632;-60
2023/09/26 11:53:37;;;;;;;17.30;5.47;;;;;;;;;;5091939;28;20592;-61
2023/09/26 11:56:07;;;;;;;8.27;5.40;;;;;;;;;;5091530;28;20226;-60
2023/09/26 11:58:36;;;;;;;9.38;5.22;;;;;;;;;;5092907;28;20245;-60
2023/09/26 12:01:04;;;;;;;15.82;6.03;;;;;;;;;;5092736;28;20309;-60
2023/09/26 12:03:32;;;;;;;14.13;6.55;;;;;;;;;;5092517;28;20229;-61
2023/09/26 12:05:59;;;;;;;13.88;6.00;;;;;;;;;;5092440;28;20219;-58
2023/09/26 12:08:29;;;;;;;9.13;5.63;;;;;;;;;;5092276;28;20219;-61
2023/09/26 12:10:56;;;;;;;9.23;5.45;;;;;;;;;;5093724;28;20588;-60
2023/09/26 12:13:23;;;;;;;11.68;5.85;;;;;;;;;;5097015;28;20230;-60
2023/09/26 12:15:50;;;;;;;11.90;5.35;;;;;;;;;;5096326;28;20230;-61
2023/09/26 12:18:18;;;;;;;12.48;5.93;;;;;;;;;;5096664;28;20751;-60
2023/09/26 12:20:45;;;;;;;10.68;5.40;;;;;;;;;;5096420;28;20229;-60
2023/09/26 12:23:13;;;;;;;8.70;5.50;;;;;;;;;;5096126;28;20240;-61
2023/09/26 12:25:40;;;;;;;9.80;5.78;;;;;;;;;;5113342;28;20225;-61
2023/09/26 12:28:07;;;;;;;13.68;5.60;;;;;;;;;;5116764;28;20709;-62
2023/09/26 12:30:35;;;;;;;11.93;5.15;;;;;;;;;;5116512;27;20257;-60
2023/09/26 12:33:02;;;;;;;9.75;5.70;;;;;;;;;;5116646;28;20241;-62
2023/09/26 12:35:29;;;;;;;12.20;5.45;;;;;;;;;;5116397;27;20275;-61
2023/09/26 12:37:56;;;;;;;11.90;5.68;;;;;;;;;;5116268;28;20584;-60
2023/09/26 12:40:24;;;;;;;11.85;5.60;;;;;;;;;;5116606;27;20225;-61
2023/09/26 12:42:51;;;;;;;10.77;5.57;;;;;;;;;;5114122;28;20222;-60
2023/09/26 12:45:18;;;;;;;15.98;5.70;;;;;;;;;;5096147;28;20723;-61
2023/09/26 12:47:46;;;;;;;10.18;6.28;;;;;;;;;;5095380;28;20222;-61
2023/09/26 12:50:14;;;;;;;15.15;6.30;;;;;;;;;;5095695;28;20273;-62
2023/09/26 12:52:41;;;;;;;9.45;5.60;;;;;;;;;;5095617;28;20231;-59
2023/09/26 12:55:09;;;;;;;8.57;5.30;;;;;;;;;;5109856;28;20305;-61
2023/09/26 12:57:37;;;;;;;9.98;5.13;;;;;;;;;;5116261;28;20226;-61
2023/09/26 13:00:10;;;;;;;13.88;5.78;;;;;;;;;;5116134;28;20217;-62
2023/09/26 13:02:39;;;;;;;10.35;5.55;;;;;;;;;;5115946;28;20283;-61
2023/09/26 13:05:07;;;;;;;11.70;5.97;;;;;;;;;;5116106;28;20762;-61
2023/09/26 13:07:34;;;;;;;7.97;5.18;;;;;;;;;;5114299;28;20222;-61
2023/09/26 13:10:02;;;;;;;14.73;5.80;;;;;;;;;;5116188;28;20217;-61
2023/09/26 13:12:29;;;;;;;11.82;6.00;;;;;;;;;;5115772;28;20767;-59
2023/09/26 13:14:57;;;;;;;7.82;5.20;;;;;;;;;;5115701;28;20247;-60
2023/09/26 13:17:24;;;;;;;10.38;5.45;;;;;;;;;;5116080;28;20717;-62
2023/09/26 13:19:51;;;;;;;7.30;5.05;;;;;;;;;;5114398;28;20279;-61
2023/09/26 13:22:18;;;;;;;10.63;4.85;;;;;;;;;;5114090;28;20222;-61
2023/09/26 13:24:46;;;;;;;16.02;5.30;;;;;;;;;;5113693;28;20224;-61
2023/09/26 13:27:13;;;;;;;8.05;5.25;;;;;;;;;;5114427;28;20250;-61
2023/09/26 13:29:40;;;;;;;9.63;5.00;;;;;;;;;;5115270;28;20218;-61
2023/09/26 13:32:08;;;;;;;14.35;5.57;;;;;;;;;;5115378;28;20229;-61
2023/09/26 13:34:39;;;;;;;11.15;5.63;;;;;;;;;;5115476;28;20233;-59
2023/09/26 13:37:07;;;;;;;10.43;5.40;;;;;;;;;;5115250;28;20613;-59
2023/09/26 13:39:34;;;;;;;15.98;5.57;;;;;;;;;;5115155;28;20232;-60
2023/09/26 13:42:01;;;;;;;10.57;5.63;;;;;;;;;;5115550;28;20271;-61
2023/09/26 13:44:28;;;;;;;12.20;4.95;;;;;;;;;;5115257;28;20224;-60
2023/09/26 13:46:56;;;;;;;8.82;4.18;;;;;;;;;;5115167;28;20569;-60
2023/09/26 13:49:23;;;;;;;8.45;5.18;;;;;;;;;;5115092;27;20728;-64
2023/09/26 13:51:53;;;;;;;9.15;4.63;;;;;;;;;;5113786;28;20226;-62
2023/09/26 13:54:20;;;;;;;9.27;4.50;;;;;;;;;;5109476;28;20234;-62
2023/09/26 13:56:48;;;;;;;11.40;4.78;;;;;;;;;;5107757;28;20225;-62
2023/09/26 13:59:15;;;;;;;13.23;5.47;;;;;;;;;;5114093;28;20589;-62
2023/09/26 14:01:42;;;;;;;13.55;4.57;;;;;;;;;;5113984;27;20218;-61
2023/09/26 14:04:09;;;;;;;8.48;4.93;;;;;;;;;;5114323;27;20222;-62
2023/09/26 14:06:37;;;;;;;8.13;4.45;;;;;;;;;;5113795;27;20222;-60
2023/09/26 14:09:05;;;;;;;12.15;5.25;;;;;;;;;;5114306;28;20305;-64
2023/09/26 14:11:33;;;;;;;6.72;4.70;;;;;;;;;;5114498;27;20229;-62
2023/09/26 14:14:00;;;;;;;6.53;4.82;;;;;;;;;;5115072;28;20237;-63
2023/09/26 14:16:27;;;;;;;10.55;4.70;;;;;;;;;;5114994;28;20228;-63
2023/09/26 14:18:58;;;;;;;8.48;4.95;;;;;;;;;;5114876;27;20239;-64
2023/09/26 14:21:26;;;;;;;9.43;5.22;;;;;;;;;;5114824;28;20229;-67
2023/09/26 14:23:53;;;;;;;10.60;5.05;;;;;;;;;;5111045;27;20221;-65
2023/09/26 14:26:24;;;;;;;10.40;5.22;;;;;;;;;;5094217;28;20597;-63
2023/09/26 14:28:54;;;;;;;14.48;5.30;;;;;;;;;;5093888;28;20258;-67
2023/09/26 14:31:21;;;;;;;8.57;4.90;;;;;;;;;;5094195;28;20223;-66
2023/09/26 14:33:48;;;;;;;9.25;5.20;;;;;;;;;;5093265;28;20637;-61
2023/09/26 14:36:16;;;;;;;12.00;5.10;;;;;;;;;;5094014;28;20706;-65
2023/09/26 14:38:43;;;;;;;13.57;5.40;;;;;;;;;;5093084;28;20627;-64
2023/09/26 14:41:11;;;;;;;13.15;5.15;;;;;;;;;;5094119;28;20623;-65
2023/09/26 14:43:38;;;;;;;8.05;4.57;;;;;;;;;;5093576;28;20219;-65